ADDS METAR Data INFO
IDs: Format: Raw Decoded Include TAF

Data at: 0856 UTC 16 Jul 2018

METAR for:PADQ (Kodiak Arpt, AK, US)
Text:PADQ 160853Z AUTO 26003KT 10SM CLR 11/08 A2992 RMK AO2 SLP132 T01110078 401780089 52010 TSNO
Temperature: 11.1°C ( 52°F)
Dewpoint: 7.8°C ( 46°F) [RH = 80%]
Pressure (altimeter):29.92 inches Hg (1013.3 mb) [Sea level pressure: 1013.2 mb]
Winds:from the W (260 degrees) at 3 MPH (3 knots; 1.5 m/s)
Visibility:10 or more sm (16+ km)
Ceiling:at least 12,000 feet AGL
Clouds:sky clear below 12,000 feet AGL
QC Flag:automated observation with no human augmentation
Text:PADQ 160753Z AUTO 28004KT 10SM CLR 12/07 A2991 RMK AO2 SLP128 T01170072 TSNO
Temperature: 11.7°C ( 53°F)
Dewpoint: 7.2°C ( 45°F) [RH = 74%]
Pressure (altimeter):29.91 inches Hg (1013.0 mb) [Sea level pressure: 1012.8 mb]
Winds:from the W (280 degrees) at 5 MPH (4 knots; 2.1 m/s)
Visibility:10 or more sm (16+ km)
Ceiling:at least 12,000 feet AGL
Clouds:sky clear below 12,000 feet AGL
QC Flag:automated observation with no human augmentation
Text:PADQ 160653Z AUTO VRB05KT 10SM CLR 14/07 A2990 RMK AO2 SLP126 T01440072 TSNO
Temperature: 14.4°C ( 58°F)
Dewpoint: 7.2°C ( 45°F) [RH = 62%]
Pressure (altimeter):29.90 inches Hg (1012.6 mb) [Sea level pressure: 1012.6 mb]
Winds:variable direction winds at 6 MPH (5 knots; 2.6 m/s)
Visibility:10 or more sm (16+ km)
Ceiling:at least 12,000 feet AGL
Clouds:sky clear below 12,000 feet AGL
QC Flag:automated observation with no human augmentation
Text:PADQ 160553Z 29005KT 10SM CLR 16/08 A2989 RMK AO2 SLP122 T01610078 10172 20133 53003
Temperature: 16.1°C ( 61°F)
Dewpoint: 7.8°C ( 46°F) [RH = 58%]
Pressure (altimeter):29.89 inches Hg (1012.3 mb) [Sea level pressure: 1012.2 mb]
Winds:from the WNW (290 degrees) at 6 MPH (5 knots; 2.6 m/s)
Visibility:10 or more sm (16+ km)
Ceiling:at least 12,000 feet AGL
Clouds:sky clear below 12,000 feet AGL
Text:PADQ 160453Z 05003KT 10SM CLR 15/09 A2989 RMK AO2 SLP121 T01500089
Temperature: 15.0°C ( 59°F)
Dewpoint: 8.9°C ( 48°F) [RH = 67%]
Pressure (altimeter):29.89 inches Hg (1012.3 mb) [Sea level pressure: 1012.1 mb]
Winds:from the NE (50 degrees) at 3 MPH (3 knots; 1.5 m/s)
Visibility:10 or more sm (16+ km)
Ceiling:at least 12,000 feet AGL
Clouds:sky clear below 12,000 feet AGL
Text:PADQ 160353Z 00000KT 10SM FEW046 17/08 A2988 RMK AO2 SLP118 T01670083
Temperature: 16.7°C ( 62°F)
Dewpoint: 8.3°C ( 47°F) [RH = 58%]
Pressure (altimeter):29.88 inches Hg (1011.9 mb) [Sea level pressure: 1011.8 mb]
Winds:calm
Visibility:10 or more sm (16+ km)
Ceiling:at least 12,000 feet AGL
Clouds: few clouds at 4600 feet AGL

TAF for:PADQ (Kodiak Arpt, AK, US) issued at 0523 UTC 16 Jul 2018
Text:PADQ 160523Z 1606/1706 VRB05KT P6SM SCT050 BKN120
Forecast period:0600 UTC 16 July 2018 to 0600 UTC 17 July 2018
Forecast type:FROM: standard forecast or significant change
Winds:variable direction winds at 6 MPH (5 knots; 2.6 m/s)
Visibility:6 or more sm (10+ km)
Ceiling:12000 feet AGL
Clouds: scattered clouds at 5000 feet AGL, broken clouds at 12000 feet AGL